EZY11 EGMC-LEPA
Flight info
| Callsign | EZY11 |
|---|---|
| Flight time | 1h 55m |
| Altitude | 34000 |
| Route | DET M604 LYD UM189 WAFFU DCT SITET/N0435F350 UN859 SOPIL DCT BALAN DCT EVPOK DCT NARAK DCT GAI DCT LOMRA DCT ROCAN DCT IBRAP DCT LUKEV DCT LORES |
| Aircraft | A20N/M-SDE2E3FGHIRWXY/LB1 |
Departure
| Time | 2026-04-17 11:40 |
|---|---|
| Airport | London Southend Airport (EGMC) |
Arrival
| Time | 2026-04-17 13:35 |
|---|---|
| Airport | Palma de Mallorca Airport (LEPA) |
| Time | Latitude | Longitude | Altitude | Speed | Heading |
|---|---|---|---|---|---|
| 2026-04-17 11:09 | 51.57159 | 0.70305 | 49 ft | 0 kts | 94° |
| 2026-04-17 11:32 | 51.57159 | 0.70304 | 49 ft | 2 kts | 94° |
| 2026-04-17 11:32 | 51.57160 | 0.70278 | 49 ft | 2 kts | 94° |
| 2026-04-17 11:32 | 51.57162 | 0.70253 | 49 ft | 2 kts | 87° |
| 2026-04-17 11:33 | 51.57156 | 0.70231 | 47 ft | 2 kts | 21° |
| 2026-04-17 11:33 | 51.57153 | 0.70229 | 45 ft | 0 kts | 8° |
| 2026-04-17 11:33 | 51.57154 | 0.70229 | 45 ft | 1 kts | 5° |
| 2026-04-17 11:33 | 51.57180 | 0.70230 | 46 ft | 7 kts | 3° |
| 2026-04-17 11:34 | 51.57246 | 0.70239 | 49 ft | 11 kts | 12° |
| 2026-04-17 11:34 | 51.57289 | 0.70296 | 48 ft | 9 kts | 54° |
| 2026-04-17 11:34 | 51.57338 | 0.70404 | 47 ft | 15 kts | 50° |
| 2026-04-17 11:34 | 51.57426 | 0.70463 | 46 ft | 11 kts | 19° |
| 2026-04-17 11:35 | 51.57430 | 0.70465 | 46 ft | 0 kts | 14° |
| 2026-04-17 11:39 | 51.57451 | 0.70471 | 46 ft | 9 kts | 11° |
| 2026-04-17 11:39 | 51.57529 | 0.70460 | 44 ft | 9 kts | 298° |
| 2026-04-17 11:39 | 51.57530 | 0.70415 | 45 ft | 0 kts | 234° |
| 2026-04-17 11:39 | 51.57527 | 0.70407 | 46 ft | 13 kts | 234° |
| 2026-04-17 11:40 | 51.57271 | 0.69857 | 50 ft | 111 kts | 234° |
| 2026-04-17 11:40 | 51.56685 | 0.68546 | 482 ft | 158 kts | 233° |
| 2026-04-17 11:40 | 51.56015 | 0.67069 | 1516 ft | 168 kts | 231° |
| 2026-04-17 11:40 | 51.55301 | 0.65531 | 2559 ft | 178 kts | 233° |
| 2026-04-17 11:41 | 51.54509 | 0.63962 | 3541 ft | 183 kts | 225° |
| 2026-04-17 11:41 | 51.53404 | 0.62809 | 4306 ft | 199 kts | 203° |
| 2026-04-17 11:41 | 51.51992 | 0.62531 | 5082 ft | 214 kts | 182° |
| 2026-04-17 11:41 | 51.50393 | 0.62857 | 5615 ft | 247 kts | 171° |
| 2026-04-17 11:42 | 51.48685 | 0.63622 | 6529 ft | 261 kts | 165° |
| 2026-04-17 11:42 | 51.46909 | 0.64607 | 7292 ft | 283 kts | 163° |
| 2026-04-17 11:42 | 51.44952 | 0.65729 | 7762 ft | 314 kts | 164° |
| 2026-04-17 11:42 | 51.42786 | 0.66931 | 8228 ft | 344 kts | 165° |
| 2026-04-17 11:43 | 51.40426 | 0.68178 | 8699 ft | 371 kts | 165° |
| 2026-04-17 11:43 | 51.37916 | 0.69454 | 9451 ft | 384 kts | 166° |
| 2026-04-17 11:43 | 51.35345 | 0.70733 | 10396 ft | 389 kts | 166° |
| 2026-04-17 11:43 | 51.32749 | 0.72007 | 11347 ft | 392 kts | 166° |
| 2026-04-17 11:44 | 51.30135 | 0.73281 | 12203 ft | 394 kts | 167° |
| 2026-04-17 11:44 | 51.27508 | 0.74556 | 13271 ft | 396 kts | 167° |
| 2026-04-17 11:44 | 51.24849 | 0.75844 | 14109 ft | 402 kts | 167° |
| 2026-04-17 11:44 | 51.22157 | 0.77146 | 14896 ft | 407 kts | 167° |
| 2026-04-17 11:45 | 51.19415 | 0.78472 | 15515 ft | 414 kts | 167° |
| 2026-04-17 11:45 | 51.16632 | 0.79740 | 16184 ft | 417 kts | 171° |
| 2026-04-17 11:45 | 51.13806 | 0.80378 | 17006 ft | 415 kts | 181° |
| 2026-04-17 11:45 | 51.10934 | 0.80025 | 17750 ft | 415 kts | 194° |
| 2026-04-17 11:46 | 51.08174 | 0.78673 | 18462 ft | 416 kts | 203° |
| 2026-04-17 11:46 | 51.05510 | 0.76834 | 19098 ft | 419 kts | 207° |
| 2026-04-17 11:46 | 51.02902 | 0.74730 | 19789 ft | 422 kts | 210° |
| 2026-04-17 11:46 | 51.00311 | 0.72510 | 20450 ft | 425 kts | 210° |
| 2026-04-17 11:47 | 50.97701 | 0.70251 | 21142 ft | 428 kts | 210° |
| 2026-04-17 11:47 | 50.95073 | 0.68003 | 21808 ft | 432 kts | 210° |
| 2026-04-17 11:47 | 50.92408 | 0.65763 | 22450 ft | 435 kts | 210° |
| 2026-04-17 11:47 | 50.89712 | 0.63534 | 23086 ft | 439 kts | 209° |
| 2026-04-17 11:48 | 50.86988 | 0.61309 | 23729 ft | 442 kts | 209° |
| 2026-04-17 11:48 | 50.84236 | 0.59076 | 24165 ft | 447 kts | 209° |
| 2026-04-17 11:48 | 50.81454 | 0.56828 | 24654 ft | 450 kts | 209° |
| 2026-04-17 11:48 | 50.78653 | 0.54568 | 25173 ft | 452 kts | 209° |
| 2026-04-17 11:49 | 50.75855 | 0.52314 | 25774 ft | 451 kts | 209° |
| 2026-04-17 11:49 | 50.73060 | 0.50065 | 26427 ft | 450 kts | 209° |
| 2026-04-17 11:49 | 50.70275 | 0.47824 | 27108 ft | 448 kts | 209° |
| 2026-04-17 11:49 | 50.67509 | 0.45602 | 27879 ft | 443 kts | 209° |
| 2026-04-17 11:50 | 50.64778 | 0.43410 | 28681 ft | 438 kts | 209° |
| 2026-04-17 11:50 | 50.62086 | 0.41250 | 29211 ft | 440 kts | 209° |
| 2026-04-17 11:50 | 50.59327 | 0.39039 | 29849 ft | 438 kts | 209° |
| 2026-04-17 11:50 | 50.56649 | 0.36896 | 30487 ft | 436 kts | 209° |
| 2026-04-17 11:51 | 50.53947 | 0.34736 | 31003 ft | 435 kts | 209° |
| 2026-04-17 11:51 | 50.51248 | 0.32583 | 31513 ft | 434 kts | 209° |
| 2026-04-17 11:51 | 50.48557 | 0.30437 | 32025 ft | 433 kts | 209° |
| 2026-04-17 11:51 | 50.45871 | 0.28299 | 32525 ft | 432 kts | 210° |
| 2026-04-17 11:52 | 50.43190 | 0.26168 | 33020 ft | 431 kts | 210° |
| 2026-04-17 11:52 | 50.40517 | 0.24046 | 33320 ft | 428 kts | 210° |
| 2026-04-17 11:52 | 50.35184 | 0.19818 | 33222 ft | 431 kts | 209° |
| 2026-04-17 11:53 | 50.29814 | 0.15571 | 33225 ft | 432 kts | 209° |
| 2026-04-17 11:53 | 50.24445 | 0.11339 | 33224 ft | 432 kts | 209° |
| 2026-04-17 11:54 | 50.19073 | 0.07114 | 33206 ft | 432 kts | 209° |
| 2026-04-17 11:54 | 50.13692 | 0.02893 | 33225 ft | 433 kts | 209° |
| 2026-04-17 11:55 | 50.08039 | -0.00323 | 33224 ft | 442 kts | 188° |
| 2026-04-17 11:55 | 50.04954 | -0.00045 | 33221 ft | 450 kts | 173° |
| 2026-04-17 11:55 | 50.01926 | 0.01297 | 33223 ft | 456 kts | 165° |
| 2026-04-17 11:56 | 49.95968 | 0.04757 | 33213 ft | 457 kts | 164° |
| 2026-04-17 11:56 | 49.93000 | 0.06347 | 33221 ft | 444 kts | 166° |
| 2026-04-17 11:56 | 49.90099 | 0.07746 | 33223 ft | 431 kts | 168° |
| 2026-04-17 11:57 | 49.84225 | 0.10207 | 33236 ft | 450 kts | 170° |
| 2026-04-17 11:57 | 49.79097 | 0.12188 | 33234 ft | 454 kts | 170° |
| 2026-04-17 11:58 | 49.71972 | 0.14925 | 33234 ft | 453 kts | 170° |
| 2026-04-17 11:58 | 49.66840 | 0.16922 | 33237 ft | 454 kts | 169° |
| 2026-04-17 11:59 | 49.60765 | 0.19361 | 33239 ft | 454 kts | 169° |
| 2026-04-17 11:59 | 49.54660 | 0.21830 | 33239 ft | 454 kts | 169° |
| 2026-04-17 12:00 | 49.48554 | 0.24289 | 33238 ft | 453 kts | 169° |
| 2026-04-17 12:00 | 49.42442 | 0.26737 | 33238 ft | 454 kts | 169° |
| 2026-04-17 12:01 | 49.36329 | 0.29177 | 33238 ft | 454 kts | 169° |
| 2026-04-17 12:01 | 49.30214 | 0.31624 | 33229 ft | 454 kts | 168° |
| 2026-04-17 12:02 | 49.24109 | 0.34175 | 33236 ft | 455 kts | 168° |
| 2026-04-17 12:02 | 49.18005 | 0.36764 | 33234 ft | 454 kts | 168° |
| 2026-04-17 12:03 | 49.11950 | 0.39321 | 33235 ft | 454 kts | 168° |
| 2026-04-17 12:03 | 49.05855 | 0.41877 | 33229 ft | 455 kts | 168° |
| 2026-04-17 12:04 | 48.99748 | 0.44429 | 33224 ft | 455 kts | 168° |
| 2026-04-17 12:04 | 48.93612 | 0.46985 | 33234 ft | 458 kts | 168° |
| 2026-04-17 12:05 | 48.87449 | 0.49547 | 33236 ft | 459 kts | 168° |
| 2026-04-17 12:05 | 48.81288 | 0.52102 | 33233 ft | 459 kts | 168° |
| 2026-04-17 12:06 | 48.75122 | 0.54601 | 33235 ft | 458 kts | 168° |
| 2026-04-17 12:06 | 48.68947 | 0.57017 | 33235 ft | 458 kts | 169° |
| 2026-04-17 12:07 | 48.62768 | 0.59419 | 33233 ft | 458 kts | 168° |
| 2026-04-17 12:07 | 48.56585 | 0.61825 | 33240 ft | 459 kts | 168° |
| 2026-04-17 12:08 | 48.50404 | 0.64249 | 33230 ft | 459 kts | 168° |
| 2026-04-17 12:08 | 48.44275 | 0.66735 | 33230 ft | 459 kts | 168° |
| 2026-04-17 12:09 | 48.38107 | 0.69254 | 33227 ft | 460 kts | 167° |
| 2026-04-17 12:09 | 48.31929 | 0.71765 | 33228 ft | 460 kts | 167° |
| 2026-04-17 12:10 | 48.25755 | 0.74261 | 33224 ft | 460 kts | 168° |
| 2026-04-17 12:10 | 48.19572 | 0.76715 | 33226 ft | 460 kts | 168° |
| 2026-04-17 12:11 | 48.13371 | 0.79147 | 33222 ft | 461 kts | 168° |
| 2026-04-17 12:12 | 48.04068 | 0.82788 | 33222 ft | 461 kts | 168° |
| 2026-04-17 12:12 | 47.97864 | 0.85213 | 33210 ft | 461 kts | 167° |
| 2026-04-17 12:13 | 47.91639 | 0.87639 | 33220 ft | 463 kts | 167° |
| 2026-04-17 12:13 | 47.85399 | 0.90067 | 33219 ft | 464 kts | 167° |
| 2026-04-17 12:14 | 47.79152 | 0.92492 | 33205 ft | 464 kts | 167° |
| 2026-04-17 12:14 | 47.72943 | 0.94895 | 33219 ft | 464 kts | 167° |
| 2026-04-17 12:15 | 47.66686 | 0.97310 | 33220 ft | 464 kts | 167° |
| 2026-04-17 12:15 | 47.60434 | 0.99717 | 33222 ft | 464 kts | 167° |
| 2026-04-17 12:16 | 47.54176 | 1.02121 | 33217 ft | 464 kts | 167° |
| 2026-04-17 12:16 | 47.47916 | 1.04520 | 33217 ft | 465 kts | 168° |
| 2026-04-17 12:17 | 47.41614 | 1.06554 | 33217 ft | 462 kts | 176° |
| 2026-04-17 12:17 | 47.35214 | 1.06731 | 33215 ft | 460 kts | 184° |
| 2026-04-17 12:18 | 47.28852 | 1.06327 | 33218 ft | 460 kts | 184° |
| 2026-04-17 12:18 | 47.22453 | 1.05996 | 33218 ft | 460 kts | 184° |
| 2026-04-17 12:19 | 47.16053 | 1.05796 | 33206 ft | 460 kts | 183° |
| 2026-04-17 12:19 | 47.09633 | 1.05650 | 33213 ft | 461 kts | 183° |
| 2026-04-17 12:20 | 47.03219 | 1.05508 | 33212 ft | 461 kts | 183° |
| 2026-04-17 12:20 | 46.96800 | 1.05282 | 33207 ft | 461 kts | 184° |
| 2026-04-17 12:21 | 46.90423 | 1.04997 | 33210 ft | 462 kts | 184° |
| 2026-04-17 12:21 | 46.83999 | 1.04710 | 33205 ft | 462 kts | 184° |
| 2026-04-17 12:22 | 46.77578 | 1.04431 | 33204 ft | 462 kts | 184° |
| 2026-04-17 12:22 | 46.71155 | 1.04158 | 33206 ft | 462 kts | 184° |
| 2026-04-17 12:23 | 46.64732 | 1.03887 | 33206 ft | 462 kts | 184° |
| 2026-04-17 12:23 | 46.58306 | 1.03615 | 33206 ft | 462 kts | 184° |
| 2026-04-17 12:24 | 46.51879 | 1.03434 | 33193 ft | 464 kts | 180° |
| 2026-04-17 12:24 | 46.45465 | 1.04913 | 33193 ft | 469 kts | 170° |
| 2026-04-17 12:25 | 46.39123 | 1.07241 | 33202 ft | 470 kts | 168° |
| 2026-04-17 12:25 | 46.32820 | 1.09553 | 33198 ft | 470 kts | 169° |
| 2026-04-17 12:26 | 46.26445 | 1.11747 | 33204 ft | 471 kts | 170° |
| 2026-04-17 12:26 | 46.20058 | 1.13871 | 33205 ft | 471 kts | 171° |
| 2026-04-17 12:27 | 46.13665 | 1.15979 | 33203 ft | 472 kts | 171° |
| 2026-04-17 12:27 | 46.07258 | 1.18090 | 33206 ft | 473 kts | 171° |
| 2026-04-17 12:28 | 46.00839 | 1.20204 | 33208 ft | 473 kts | 171° |
| 2026-04-17 12:28 | 45.94408 | 1.22319 | 33205 ft | 474 kts | 171° |
| 2026-04-17 12:29 | 45.87963 | 1.24433 | 33211 ft | 476 kts | 171° |
| 2026-04-17 12:29 | 45.81500 | 1.26548 | 33209 ft | 476 kts | 171° |
| 2026-04-17 12:30 | 45.75083 | 1.28644 | 33205 ft | 476 kts | 171° |
| 2026-04-17 12:30 | 45.68568 | 1.30766 | 33199 ft | 478 kts | 171° |
| 2026-04-17 12:31 | 45.62118 | 1.32862 | 33200 ft | 478 kts | 171° |
| 2026-04-17 12:31 | 45.55635 | 1.34964 | 33191 ft | 478 kts | 171° |
| 2026-04-17 12:32 | 45.49135 | 1.37066 | 33200 ft | 479 kts | 171° |
| 2026-04-17 12:32 | 45.42641 | 1.39162 | 33196 ft | 479 kts | 171° |
| 2026-04-17 12:33 | 45.36143 | 1.41253 | 33192 ft | 479 kts | 171° |
| 2026-04-17 12:33 | 45.29641 | 1.43341 | 33193 ft | 479 kts | 171° |
| 2026-04-17 12:34 | 45.23142 | 1.45424 | 33189 ft | 478 kts | 171° |
| 2026-04-17 12:34 | 45.16686 | 1.47488 | 33177 ft | 478 kts | 171° |
| 2026-04-17 12:35 | 45.10190 | 1.49560 | 33183 ft | 478 kts | 171° |
| 2026-04-17 12:35 | 45.03706 | 1.51622 | 33183 ft | 478 kts | 171° |
| 2026-04-17 12:37 | 44.77650 | 1.59862 | 33193 ft | 480 kts | 171° |
| 2026-04-17 12:38 | 44.71128 | 1.61913 | 33191 ft | 480 kts | 171° |
| 2026-04-17 12:38 | 44.64640 | 1.63950 | 33192 ft | 480 kts | 171° |
| 2026-04-17 12:39 | 44.58118 | 1.65992 | 33189 ft | 480 kts | 171° |
| 2026-04-17 12:39 | 44.51593 | 1.68030 | 33193 ft | 480 kts | 171° |
| 2026-04-17 12:40 | 44.45077 | 1.70060 | 33195 ft | 480 kts | 171° |
| 2026-04-17 12:40 | 44.38550 | 1.72089 | 33189 ft | 480 kts | 171° |
| 2026-04-17 12:41 | 44.32026 | 1.74112 | 33189 ft | 479 kts | 171° |
| 2026-04-17 12:41 | 44.25486 | 1.75911 | 33186 ft | 478 kts | 174° |
| 2026-04-17 12:42 | 44.18922 | 1.77338 | 33185 ft | 477 kts | 175° |
| 2026-04-17 12:42 | 44.12355 | 1.78719 | 33184 ft | 477 kts | 175° |
| 2026-04-17 12:43 | 44.05835 | 1.80123 | 33184 ft | 477 kts | 174° |
| 2026-04-17 12:43 | 43.99278 | 1.81560 | 33179 ft | 477 kts | 174° |
| 2026-04-17 12:44 | 43.92706 | 1.82819 | 33179 ft | 475 kts | 178° |
| 2026-04-17 12:44 | 43.86119 | 1.83484 | 33187 ft | 474 kts | 180° |
| 2026-04-17 12:45 | 43.79533 | 1.84020 | 33182 ft | 474 kts | 180° |
| 2026-04-17 12:45 | 43.72949 | 1.84602 | 33187 ft | 474 kts | 179° |
| 2026-04-17 12:46 | 43.67475 | 1.85120 | 33188 ft | 474 kts | 179° |
| 2026-04-17 12:46 | 43.60889 | 1.85758 | 33175 ft | 474 kts | 179° |
| 2026-04-17 12:47 | 43.54295 | 1.86397 | 33176 ft | 474 kts | 179° |
| 2026-04-17 12:47 | 43.47710 | 1.87030 | 33162 ft | 474 kts | 179° |
| 2026-04-17 12:48 | 43.41123 | 1.87662 | 33146 ft | 474 kts | 179° |
| 2026-04-17 12:48 | 43.34542 | 1.88292 | 33157 ft | 474 kts | 179° |
| 2026-04-17 12:49 | 43.27952 | 1.88922 | 33157 ft | 474 kts | 179° |
| 2026-04-17 12:49 | 43.21373 | 1.89553 | 33159 ft | 474 kts | 179° |
| 2026-04-17 12:50 | 43.14834 | 1.90180 | 32960 ft | 461 kts | 179° |
| 2026-04-17 12:50 | 43.11677 | 1.90485 | 32705 ft | 449 kts | 179° |
| 2026-04-17 12:50 | 43.08601 | 1.90782 | 32471 ft | 437 kts | 179° |
| 2026-04-17 12:50 | 43.05601 | 1.91069 | 32246 ft | 426 kts | 179° |
| 2026-04-17 12:51 | 43.02678 | 1.91348 | 32019 ft | 416 kts | 179° |
| 2026-04-17 12:51 | 42.99829 | 1.91618 | 31802 ft | 406 kts | 179° |
| 2026-04-17 12:51 | 42.97046 | 1.91881 | 31603 ft | 396 kts | 179° |
| 2026-04-17 12:51 | 42.94366 | 1.92134 | 31428 ft | 386 kts | 179° |
| 2026-04-17 12:52 | 42.91720 | 1.92384 | 31254 ft | 377 kts | 179° |
| 2026-04-17 12:52 | 42.89104 | 1.92629 | 30665 ft | 380 kts | 179° |
| 2026-04-17 12:52 | 42.86429 | 1.92874 | 29784 ft | 390 kts | 179° |
| 2026-04-17 12:52 | 42.83689 | 1.93125 | 28838 ft | 399 kts | 179° |
| 2026-04-17 12:53 | 42.80888 | 1.93382 | 27846 ft | 408 kts | 178° |
| 2026-04-17 12:53 | 42.78022 | 1.93648 | 26866 ft | 417 kts | 178° |
| 2026-04-17 12:53 | 42.75098 | 1.93923 | 25865 ft | 426 kts | 178° |
| 2026-04-17 12:53 | 42.72115 | 1.94206 | 24825 ft | 434 kts | 178° |
| 2026-04-17 12:54 | 42.69067 | 1.94496 | 23775 ft | 442 kts | 177° |
| 2026-04-17 12:54 | 42.65987 | 1.95040 | 22459 ft | 451 kts | 171° |
| 2026-04-17 12:54 | 42.62892 | 1.95950 | 21173 ft | 458 kts | 167° |
| 2026-04-17 12:54 | 42.59808 | 1.97065 | 20257 ft | 456 kts | 165° |
| 2026-04-17 12:55 | 42.56815 | 1.98228 | 19853 ft | 440 kts | 165° |
| 2026-04-17 12:55 | 42.53928 | 1.99359 | 19542 ft | 423 kts | 165° |
| 2026-04-17 12:55 | 42.51146 | 2.00430 | 19247 ft | 408 kts | 166° |
| 2026-04-17 12:55 | 42.48461 | 2.01439 | 18993 ft | 393 kts | 166° |
| 2026-04-17 12:56 | 42.45867 | 2.02393 | 18770 ft | 379 kts | 166° |
| 2026-04-17 12:56 | 42.43356 | 2.03303 | 18568 ft | 366 kts | 167° |
| 2026-04-17 12:56 | 42.40935 | 2.04171 | 18375 ft | 354 kts | 166° |
| 2026-04-17 12:56 | 42.38624 | 2.04997 | 18159 ft | 342 kts | 166° |
| 2026-04-17 12:57 | 42.36360 | 2.05803 | 18004 ft | 331 kts | 166° |
| 2026-04-17 12:57 | 42.34167 | 2.06581 | 17783 ft | 320 kts | 166° |
| 2026-04-17 12:57 | 42.32049 | 2.07333 | 17587 ft | 310 kts | 166° |
| 2026-04-17 12:57 | 42.29999 | 2.08063 | 17431 ft | 300 kts | 166° |
| 2026-04-17 12:58 | 42.28011 | 2.08769 | 17296 ft | 290 kts | 166° |
| 2026-04-17 12:58 | 42.26085 | 2.09452 | 17141 ft | 282 kts | 167° |
| 2026-04-17 12:58 | 42.24218 | 2.10112 | 16997 ft | 273 kts | 166° |
| 2026-04-17 12:58 | 42.22411 | 2.10752 | 16874 ft | 264 kts | 166° |
| 2026-04-17 12:59 | 42.20651 | 2.11376 | 16682 ft | 259 kts | 167° |
| 2026-04-17 12:59 | 42.18911 | 2.11990 | 16428 ft | 257 kts | 166° |
| 2026-04-17 12:59 | 42.17187 | 2.12598 | 16153 ft | 255 kts | 166° |
| 2026-04-17 12:59 | 42.15493 | 2.13197 | 15844 ft | 256 kts | 166° |
| 2026-04-17 13:00 | 42.13732 | 2.13818 | 15296 ft | 267 kts | 166° |
| 2026-04-17 13:00 | 42.11890 | 2.14467 | 14709 ft | 280 kts | 166° |
| 2026-04-17 13:00 | 42.09961 | 2.15147 | 14073 ft | 292 kts | 166° |
| 2026-04-17 13:00 | 42.07977 | 2.15847 | 13615 ft | 295 kts | 166° |
| 2026-04-17 13:01 | 42.05965 | 2.16557 | 12929 ft | 304 kts | 166° |
| 2026-04-17 13:01 | 42.03876 | 2.17293 | 12168 ft | 314 kts | 165° |
| 2026-04-17 13:01 | 42.01721 | 2.18052 | 11362 ft | 325 kts | 165° |
| 2026-04-17 13:01 | 41.99445 | 2.18854 | 10670 ft | 360 kts | 165° |
| 2026-04-17 13:02 | 41.96869 | 2.19761 | 10283 ft | 400 kts | 165° |
| 2026-04-17 13:02 | 41.94132 | 2.20724 | 10161 ft | 411 kts | 165° |
| 2026-04-17 13:02 | 41.91354 | 2.21699 | 10145 ft | 413 kts | 165° |
| 2026-04-17 13:02 | 41.88569 | 2.22675 | 10142 ft | 414 kts | 165° |
| 2026-04-17 13:03 | 41.85781 | 2.23651 | 10145 ft | 413 kts | 165° |
| 2026-04-17 13:03 | 41.83033 | 2.24612 | 10147 ft | 414 kts | 165° |
| 2026-04-17 13:03 | 41.80249 | 2.25586 | 10149 ft | 413 kts | 165° |
| 2026-04-17 13:03 | 41.77471 | 2.26557 | 10149 ft | 412 kts | 165° |
| 2026-04-17 13:04 | 41.74696 | 2.27526 | 10147 ft | 413 kts | 166° |
| 2026-04-17 13:04 | 41.71907 | 2.28498 | 10162 ft | 413 kts | 166° |
| 2026-04-17 13:04 | 41.69181 | 2.29449 | 9804 ft | 398 kts | 166° |
| 2026-04-17 13:04 | 41.66499 | 2.30385 | 9321 ft | 403 kts | 166° |
| 2026-04-17 13:05 | 41.63763 | 2.31340 | 9167 ft | 406 kts | 166° |
| 2026-04-17 13:05 | 41.61033 | 2.32292 | 9154 ft | 404 kts | 166° |
| 2026-04-17 13:05 | 41.58303 | 2.33242 | 9157 ft | 405 kts | 166° |
| 2026-04-17 13:05 | 41.55587 | 2.34186 | 9155 ft | 403 kts | 166° |
| 2026-04-17 13:06 | 41.52870 | 2.35129 | 9162 ft | 403 kts | 166° |
| 2026-04-17 13:06 | 41.50158 | 2.36070 | 9154 ft | 402 kts | 166° |
| 2026-04-17 13:06 | 41.47454 | 2.37006 | 9168 ft | 402 kts | 166° |
| 2026-04-17 13:06 | 41.44742 | 2.37945 | 9169 ft | 402 kts | 166° |
| 2026-04-17 13:07 | 41.42034 | 2.38882 | 9172 ft | 402 kts | 166° |
| 2026-04-17 13:07 | 41.39334 | 2.39816 | 9172 ft | 402 kts | 166° |
| 2026-04-17 13:07 | 41.36626 | 2.40752 | 9175 ft | 402 kts | 166° |
| 2026-04-17 13:07 | 41.33920 | 2.41685 | 9133 ft | 399 kts | 166° |
| 2026-04-17 13:08 | 41.31277 | 2.42597 | 8525 ft | 388 kts | 166° |
| 2026-04-17 13:08 | 41.28656 | 2.43500 | 7955 ft | 392 kts | 166° |
| 2026-04-17 13:08 | 41.26011 | 2.44411 | 7714 ft | 394 kts | 166° |
| 2026-04-17 13:08 | 41.23359 | 2.45323 | 7679 ft | 393 kts | 166° |
| 2026-04-17 13:09 | 41.20745 | 2.46220 | 7675 ft | 392 kts | 166° |
| 2026-04-17 13:09 | 41.18103 | 2.47127 | 7677 ft | 392 kts | 166° |
| 2026-04-17 13:09 | 41.15465 | 2.48033 | 7676 ft | 392 kts | 166° |
| 2026-04-17 13:09 | 41.12829 | 2.48937 | 7679 ft | 391 kts | 166° |
| 2026-04-17 13:10 | 41.10187 | 2.49842 | 7679 ft | 392 kts | 166° |
| 2026-04-17 13:10 | 41.07557 | 2.50742 | 7598 ft | 387 kts | 166° |
| 2026-04-17 13:10 | 41.04990 | 2.51621 | 6896 ft | 376 kts | 166° |
| 2026-04-17 13:10 | 41.02451 | 2.52489 | 5987 ft | 378 kts | 166° |
| 2026-04-17 13:11 | 40.99894 | 2.53362 | 5427 ft | 380 kts | 166° |
| 2026-04-17 13:11 | 40.97344 | 2.54232 | 5081 ft | 377 kts | 166° |
| 2026-04-17 13:11 | 40.94808 | 2.55096 | 4995 ft | 376 kts | 166° |
| 2026-04-17 13:11 | 40.92279 | 2.55957 | 4990 ft | 375 kts | 166° |
| 2026-04-17 13:12 | 40.89748 | 2.56818 | 4985 ft | 374 kts | 166° |
| 2026-04-17 13:12 | 40.84899 | 2.58467 | 4978 ft | 331 kts | 166° |
| 2026-04-17 13:12 | 40.82766 | 2.59192 | 4981 ft | 304 kts | 166° |
| 2026-04-17 13:13 | 40.80800 | 2.59860 | 4982 ft | 280 kts | 166° |
| 2026-04-17 13:13 | 40.78983 | 2.60477 | 4980 ft | 260 kts | 166° |
| 2026-04-17 13:13 | 40.77295 | 2.61049 | 4979 ft | 241 kts | 166° |
| 2026-04-17 13:13 | 40.75724 | 2.61582 | 4977 ft | 225 kts | 166° |
| 2026-04-17 13:14 | 40.74263 | 2.62077 | 4976 ft | 210 kts | 166° |
| 2026-04-17 13:14 | 40.72879 | 2.62545 | 4985 ft | 204 kts | 166° |
| 2026-04-17 13:14 | 40.71390 | 2.63047 | 5023 ft | 249 kts | 166° |
| 2026-04-17 13:14 | 40.69525 | 2.63674 | 5014 ft | 304 kts | 166° |
| 2026-04-17 13:15 | 40.67314 | 2.64419 | 5006 ft | 351 kts | 166° |
| 2026-04-17 13:15 | 40.64861 | 2.65247 | 4997 ft | 371 kts | 166° |
| 2026-04-17 13:15 | 40.62347 | 2.66097 | 4992 ft | 374 kts | 166° |
| 2026-04-17 13:15 | 40.59819 | 2.66951 | 4995 ft | 375 kts | 166° |
| 2026-04-17 13:16 | 40.57292 | 2.67803 | 4990 ft | 375 kts | 166° |
| 2026-04-17 13:16 | 40.54762 | 2.68655 | 4992 ft | 375 kts | 166° |
| 2026-04-17 13:16 | 40.52232 | 2.69507 | 4994 ft | 375 kts | 166° |
| 2026-04-17 13:16 | 40.49700 | 2.70349 | 4991 ft | 376 kts | 163° |
| 2026-04-17 13:17 | 40.47391 | 2.71834 | 4985 ft | 356 kts | 149° |
| 2026-04-17 13:17 | 40.45320 | 2.73412 | 4994 ft | 347 kts | 149° |
| 2026-04-17 13:17 | 40.43143 | 2.75086 | 5003 ft | 372 kts | 150° |
| 2026-04-17 13:17 | 40.40885 | 2.76787 | 4998 ft | 375 kts | 150° |
| 2026-04-17 13:18 | 40.38609 | 2.78471 | 4999 ft | 375 kts | 150° |
| 2026-04-17 13:18 | 40.36330 | 2.80140 | 4996 ft | 376 kts | 151° |
| 2026-04-17 13:18 | 40.34045 | 2.81803 | 4996 ft | 376 kts | 151° |
| 2026-04-17 13:18 | 40.31763 | 2.83458 | 4995 ft | 376 kts | 151° |
| 2026-04-17 13:19 | 40.29474 | 2.85113 | 4998 ft | 376 kts | 151° |
| 2026-04-17 13:19 | 40.27184 | 2.86766 | 4998 ft | 376 kts | 151° |
| 2026-04-17 13:19 | 40.24891 | 2.88419 | 4995 ft | 376 kts | 151° |
| 2026-04-17 13:19 | 40.22597 | 2.90072 | 4995 ft | 376 kts | 151° |
| 2026-04-17 13:20 | 40.20352 | 2.91688 | 4766 ft | 367 kts | 151° |
| 2026-04-17 13:20 | 40.18141 | 2.93278 | 3934 ft | 360 kts | 151° |
| 2026-04-17 13:20 | 40.15935 | 2.94863 | 3329 ft | 363 kts | 151° |
| 2026-04-17 13:20 | 40.13721 | 2.96453 | 3047 ft | 363 kts | 151° |
| 2026-04-17 13:21 | 40.11512 | 2.98037 | 2994 ft | 362 kts | 151° |
| 2026-04-17 13:21 | 40.09362 | 2.99578 | 2981 ft | 337 kts | 152° |
| 2026-04-17 13:21 | 40.07400 | 3.00985 | 2983 ft | 306 kts | 152° |
| 2026-04-17 13:21 | 40.05614 | 3.02264 | 2983 ft | 280 kts | 152° |
| 2026-04-17 13:22 | 40.03974 | 3.03439 | 2985 ft | 258 kts | 152° |
| 2026-04-17 13:22 | 40.02461 | 3.04521 | 2982 ft | 238 kts | 152° |
| 2026-04-17 13:22 | 40.01057 | 3.05525 | 2982 ft | 221 kts | 151° |
| 2026-04-17 13:22 | 39.99755 | 3.06454 | 2981 ft | 206 kts | 151° |
| 2026-04-17 13:23 | 39.98539 | 3.07323 | 2979 ft | 195 kts | 151° |
| 2026-04-17 13:23 | 39.97351 | 3.08171 | 2992 ft | 195 kts | 151° |
| 2026-04-17 13:23 | 39.96162 | 3.09019 | 2994 ft | 195 kts | 151° |
| 2026-04-17 13:23 | 39.94972 | 3.09868 | 2993 ft | 195 kts | 151° |
| 2026-04-17 13:24 | 39.93779 | 3.10715 | 2993 ft | 195 kts | 153° |
| 2026-04-17 13:24 | 39.92484 | 3.11149 | 2991 ft | 194 kts | 187° |
| 2026-04-17 13:24 | 39.91193 | 3.10681 | 2997 ft | 193 kts | 202° |
| 2026-04-17 13:24 | 39.89972 | 3.09997 | 2989 ft | 194 kts | 205° |
| 2026-04-17 13:25 | 39.88724 | 3.09262 | 2994 ft | 195 kts | 204° |
| 2026-04-17 13:25 | 39.87503 | 3.08551 | 2993 ft | 195 kts | 204° |
| 2026-04-17 13:25 | 39.86246 | 3.07830 | 2994 ft | 195 kts | 204° |
| 2026-04-17 13:25 | 39.85019 | 3.07132 | 2994 ft | 195 kts | 204° |
| 2026-04-17 13:26 | 39.83775 | 3.06430 | 2993 ft | 195 kts | 204° |
| 2026-04-17 13:26 | 39.82530 | 3.05728 | 2996 ft | 195 kts | 204° |
| 2026-04-17 13:26 | 39.81283 | 3.05027 | 2992 ft | 194 kts | 203° |
| 2026-04-17 13:26 | 39.80050 | 3.04333 | 2991 ft | 192 kts | 203° |
| 2026-04-17 13:27 | 39.78824 | 3.03646 | 2991 ft | 191 kts | 203° |
| 2026-04-17 13:27 | 39.77603 | 3.02961 | 2932 ft | 191 kts | 203° |
| 2026-04-17 13:27 | 39.76381 | 3.02278 | 2712 ft | 191 kts | 203° |
| 2026-04-17 13:27 | 39.75159 | 3.01596 | 2515 ft | 191 kts | 203° |
| 2026-04-17 13:28 | 39.73954 | 3.00923 | 2510 ft | 182 kts | 203° |
| 2026-04-17 13:28 | 39.72822 | 3.00291 | 2499 ft | 175 kts | 203° |
| 2026-04-17 13:28 | 39.71705 | 2.99668 | 2487 ft | 175 kts | 203° |
| 2026-04-17 13:28 | 39.70587 | 2.99043 | 2493 ft | 175 kts | 203° |
| 2026-04-17 13:29 | 39.69469 | 2.98418 | 2489 ft | 175 kts | 203° |
| 2026-04-17 13:29 | 39.68367 | 2.97802 | 2491 ft | 175 kts | 203° |
| 2026-04-17 13:29 | 39.67248 | 2.97178 | 2489 ft | 175 kts | 203° |
| 2026-04-17 13:29 | 39.66180 | 2.96582 | 2473 ft | 158 kts | 203° |
| 2026-04-17 13:30 | 39.65239 | 2.96032 | 2477 ft | 140 kts | 209° |
| 2026-04-17 13:30 | 39.64533 | 2.95203 | 2486 ft | 136 kts | 232° |
| 2026-04-17 13:30 | 39.64008 | 2.94182 | 2493 ft | 136 kts | 239° |
| 2026-04-17 13:30 | 39.63520 | 2.93125 | 2496 ft | 137 kts | 239° |
| 2026-04-17 13:31 | 39.63028 | 2.92070 | 2488 ft | 136 kts | 239° |
| 2026-04-17 13:31 | 39.62694 | 2.91359 | 2487 ft | 136 kts | 238° |
| 2026-04-17 13:31 | 39.62039 | 2.89969 | 2474 ft | 137 kts | 238° |
| 2026-04-17 13:31 | 39.61701 | 2.89254 | 2390 ft | 137 kts | 238° |
| 2026-04-17 13:32 | 39.61203 | 2.88201 | 2196 ft | 136 kts | 238° |
| 2026-04-17 13:32 | 39.60718 | 2.87171 | 2015 ft | 135 kts | 238° |
| 2026-04-17 13:32 | 39.60229 | 2.86132 | 1827 ft | 135 kts | 238° |
| 2026-04-17 13:32 | 39.59741 | 2.85094 | 1647 ft | 134 kts | 238° |
| 2026-04-17 13:33 | 39.59264 | 2.84079 | 1476 ft | 127 kts | 238° |
| 2026-04-17 13:33 | 39.58816 | 2.83128 | 1312 ft | 122 kts | 238° |
| 2026-04-17 13:33 | 39.58377 | 2.82196 | 1153 ft | 120 kts | 237° |
| 2026-04-17 13:33 | 39.57948 | 2.81286 | 1004 ft | 118 kts | 237° |
| 2026-04-17 13:34 | 39.57523 | 2.80384 | 840 ft | 116 kts | 237° |
| 2026-04-17 13:34 | 39.57105 | 2.79495 | 686 ft | 115 kts | 237° |
| 2026-04-17 13:34 | 39.56683 | 2.78600 | 537 ft | 116 kts | 237° |
| 2026-04-17 13:34 | 39.56265 | 2.77702 | 411 ft | 117 kts | 238° |
| 2026-04-17 13:35 | 39.55850 | 2.76809 | 272 ft | 115 kts | 237° |
| 2026-04-17 13:35 | 39.55431 | 2.75933 | 53 ft | 111 kts | 237° |
| 2026-04-17 13:35 | 39.55102 | 2.75241 | 32 ft | 51 kts | 239° |
| 2026-04-17 13:35 | 39.54957 | 2.74936 | 31 ft | 40 kts | 237° |
| 2026-04-17 13:36 | 39.54829 | 2.74600 | 33 ft | 42 kts | 251° |
| 2026-04-17 13:36 | 39.54798 | 2.74225 | 35 ft | 26 kts | 269° |
| 2026-04-17 13:36 | 39.54796 | 2.74180 | 36 ft | 3 kts | 263° |
| 2026-04-17 13:36 | 39.54789 | 2.74129 | 35 ft | 8 kts | 249° |
| 2026-04-17 13:37 | 39.54753 | 2.74049 | 36 ft | 14 kts | 237° |